sensor_id;sensor_type;location;lat;lon;timestamp;temperature;humidity
5344;DHT22;2694;48.954;8.928;2023-07-20T00:02:23;19.70;94.20
5344;DHT22;2694;48.954;8.928;2023-07-20T00:04:50;19.60;94.30
5344;DHT22;2694;48.954;8.928;2023-07-20T00:07:18;19.60;94.50
5344;DHT22;2694;48.954;8.928;2023-07-20T00:09:45;19.50;94.60
5344;DHT22;2694;48.954;8.928;2023-07-20T00:12:11;19.50;94.90
5344;DHT22;2694;48.954;8.928;2023-07-20T00:14:38;19.50;95.10
5344;DHT22;2694;48.954;8.928;2023-07-20T00:17:05;19.40;95.20
5344;DHT22;2694;48.954;8.928;2023-07-20T00:19:32;19.30;95.20
5344;DHT22;2694;48.954;8.928;2023-07-20T00:22:00;19.40;95.40
5344;DHT22;2694;48.954;8.928;2023-07-20T00:24:28;19.30;95.30
5344;DHT22;2694;48.954;8.928;2023-07-20T00:26:55;19.30;95.60
5344;DHT22;2694;48.954;8.928;2023-07-20T00:29:22;19.20;95.80
5344;DHT22;2694;48.954;8.928;2023-07-20T00:31:49;19.20;95.90
5344;DHT22;2694;48.954;8.928;2023-07-20T00:34:15;19.20;95.80
5344;DHT22;2694;48.954;8.928;2023-07-20T00:36:42;19.10;95.90
5344;DHT22;2694;48.954;8.928;2023-07-20T00:39:09;19.00;96.00
5344;DHT22;2694;48.954;8.928;2023-07-20T00:41:37;18.90;96.30
5344;DHT22;2694;48.954;8.928;2023-07-20T00:44:04;18.80;96.40
5344;DHT22;2694;48.954;8.928;2023-07-20T00:46:32;18.80;96.70
5344;DHT22;2694;48.954;8.928;2023-07-20T00:48:59;18.70;96.90
5344;DHT22;2694;48.954;8.928;2023-07-20T00:51:26;18.60;97.00
5344;DHT22;2694;48.954;8.928;2023-07-20T00:53:53;18.60;97.00
5344;DHT22;2694;48.954;8.928;2023-07-20T00:56:21;18.60;97.00
5344;DHT22;2694;48.954;8.928;2023-07-20T00:58:50;19.30;97.50
5344;DHT22;2694;48.954;8.928;2023-07-20T01:01:17;18.40;96.90
5344;DHT22;2694;48.954;8.928;2023-07-20T01:03:43;18.40;97.30
5344;DHT22;2694;48.954;8.928;2023-07-20T01:06:17;18.30;97.40
5344;DHT22;2694;48.954;8.928;2023-07-20T01:09:04;18.20;97.70
5344;DHT22;2694;48.954;8.928;2023-07-20T01:11:38;18.20;97.90
5344;DHT22;2694;48.954;8.928;2023-07-20T01:14:07;18.10;98.30
5344;DHT22;2694;48.954;8.928;2023-07-20T01:16:34;18.20;98.70
5344;DHT22;2694;48.954;8.928;2023-07-20T01:19:01;18.10;98.60
5344;DHT22;2694;48.954;8.928;2023-07-20T01:21:33;18.10;98.70
5344;DHT22;2694;48.954;8.928;2023-07-20T01:24:23;18.10;98.90
5344;DHT22;2694;48.954;8.928;2023-07-20T01:30:22;18.00;99.10
5344;DHT22;2694;48.954;8.928;2023-07-20T01:32:54;17.90;99.40
5344;DHT22;2694;48.954;8.928;2023-07-20T01:35:23;17.90;99.40
5344;DHT22;2694;48.954;8.928;2023-07-20T01:37:51;17.80;99.80
5344;DHT22;2694;48.954;8.928;2023-07-20T01:40:19;17.90;99.70
5344;DHT22;2694;48.954;8.928;2023-07-20T01:42:47;17.90;99.80
5344;DHT22;2694;48.954;8.928;2023-07-20T01:45:14;17.80;99.90
5344;DHT22;2694;48.954;8.928;2023-07-20T01:47:41;17.70;99.90
5344;DHT22;2694;48.954;8.928;2023-07-20T01:50:10;17.60;99.90
5344;DHT22;2694;48.954;8.928;2023-07-20T01:52:36;17.60;99.90
5344;DHT22;2694;48.954;8.928;2023-07-20T01:55:04;17.60;99.90
5344;DHT22;2694;48.954;8.928;2023-07-20T01:57:31;17.60;99.90
5344;DHT22;2694;48.954;8.928;2023-07-20T01:59:58;17.50;99.90
5344;DHT22;2694;48.954;8.928;2023-07-20T02:02:27;17.50;99.90
5344;DHT22;2694;48.954;8.928;2023-07-20T02:04:54;17.40;99.90
5344;DHT22;2694;48.954;8.928;2023-07-20T02:07:22;17.30;99.90
5344;DHT22;2694;48.954;8.928;2023-07-20T02:09:49;17.20;99.90
5344;DHT22;2694;48.954;8.928;2023-07-20T02:12:16;17.30;99.90
5344;DHT22;2694;48.954;8.928;2023-07-20T02:14:43;17.20;99.90
5344;DHT22;2694;48.954;8.928;2023-07-20T02:17:09;17.20;99.90
5344;DHT22;2694;48.954;8.928;2023-07-20T02:19:37;17.10;99.90
5344;DHT22;2694;48.954;8.928;2023-07-20T02:22:04;17.10;99.90
5344;DHT22;2694;48.954;8.928;2023-07-20T02:24:33;17.00;99.90
5344;DHT22;2694;48.954;8.928;2023-07-20T02:26:59;16.90;99.90
5344;DHT22;2694;48.954;8.928;2023-07-20T02:29:26;16.90;99.90
5344;DHT22;2694;48.954;8.928;2023-07-20T02:31:53;16.80;99.90
5344;DHT22;2694;48.954;8.928;2023-07-20T02:34:20;16.70;99.90
5344;DHT22;2694;48.954;8.928;2023-07-20T02:36:46;16.50;99.90
5344;DHT22;2694;48.954;8.928;2023-07-20T02:39:13;16.40;99.90
5344;DHT22;2694;48.954;8.928;2023-07-20T02:41:41;16.40;99.90
5344;DHT22;2694;48.954;8.928;2023-07-20T02:44:08;16.40;99.90
5344;DHT22;2694;48.954;8.928;2023-07-20T02:46:35;16.40;99.90
5344;DHT22;2694;48.954;8.928;2023-07-20T02:49:02;16.40;99.90
5344;DHT22;2694;48.954;8.928;2023-07-20T02:51:29;16.30;99.90
5344;DHT22;2694;48.954;8.928;2023-07-20T02:53:56;16.30;99.90
5344;DHT22;2694;48.954;8.928;2023-07-20T02:56:23;16.30;99.90
5344;DHT22;2694;48.954;8.928;2023-07-20T02:58:51;16.20;99.90
5344;DHT22;2694;48.954;8.928;2023-07-20T03:01:18;16.20;99.90
5344;DHT22;2694;48.954;8.928;2023-07-20T03:03:45;16.20;99.90
5344;DHT22;2694;48.954;8.928;2023-07-20T03:06:13;16.30;99.90
5344;DHT22;2694;48.954;8.928;2023-07-20T03:08:40;16.20;99.90
5344;DHT22;2694;48.954;8.928;2023-07-20T03:11:13;16.10;99.90
5344;DHT22;2694;48.954;8.928;2023-07-20T03:13:40;16.10;99.90
5344;DHT22;2694;48.954;8.928;2023-07-20T03:16:09;16.10;99.90
5344;DHT22;2694;48.954;8.928;2023-07-20T03:18:37;16.10;99.90
5344;DHT22;2694;48.954;8.928;2023-07-20T03:21:04;15.90;99.90
5344;DHT22;2694;48.954;8.928;2023-07-20T03:23:31;15.90;99.90
5344;DHT22;2694;48.954;8.928;2023-07-20T03:25:58;15.80;99.90
5344;DHT22;2694;48.954;8.928;2023-07-20T03:28:25;15.70;99.90
5344;DHT22;2694;48.954;8.928;2023-07-20T03:30:55;15.70;99.90
5344;DHT22;2694;48.954;8.928;2023-07-20T03:33:26;15.70;99.90
5344;DHT22;2694;48.954;8.928;2023-07-20T03:35:53;15.70;99.90
5344;DHT22;2694;48.954;8.928;2023-07-20T03:38:20;15.70;99.90
5344;DHT22;2694;48.954;8.928;2023-07-20T03:40:50;15.70;99.90
5344;DHT22;2694;48.954;8.928;2023-07-20T03:43:17;15.60;99.90
5344;DHT22;2694;48.954;8.928;2023-07-20T03:45:45;15.70;99.90
5344;DHT22;2694;48.954;8.928;2023-07-20T03:48:13;15.60;99.90
5344;DHT22;2694;48.954;8.928;2023-07-20T03:50:41;15.70;99.90
5344;DHT22;2694;48.954;8.928;2023-07-20T03:53:08;15.70;99.90
5344;DHT22;2694;48.954;8.928;2023-07-20T03:55:35;15.30;99.90
5344;DHT22;2694;48.954;8.928;2023-07-20T03:58:02;15.80;99.90
5344;DHT22;2694;48.954;8.928;2023-07-20T04:00:29;15.80;99.90
5344;DHT22;2694;48.954;8.928;2023-07-20T04:02:55;15.80;99.90
5344;DHT22;2694;48.954;8.928;2023-07-20T04:05:22;15.70;99.90
5344;DHT22;2694;48.954;8.928;2023-07-20T04:07:50;15.70;99.90
5344;DHT22;2694;48.954;8.928;2023-07-20T04:10:17;15.70;99.90
5344;DHT22;2694;48.954;8.928;2023-07-20T04:12:44;15.80;99.90
5344;DHT22;2694;48.954;8.928;2023-07-20T04:15:12;15.80;99.90
5344;DHT22;2694;48.954;8.928;2023-07-20T04:17:39;15.80;99.90
5344;DHT22;2694;48.954;8.928;2023-07-20T04:20:07;15.90;99.90
5344;DHT22;2694;48.954;8.928;2023-07-20T04:22:35;16.00;99.90
5344;DHT22;2694;48.954;8.928;2023-07-20T04:25:03;16.00;99.90
5344;DHT22;2694;48.954;8.928;2023-07-20T04:27:30;16.20;99.90
5344;DHT22;2694;48.954;8.928;2023-07-20T04:29:57;16.20;99.90
5344;DHT22;2694;48.954;8.928;2023-07-20T04:32:24;16.30;99.90
5344;DHT22;2694;48.954;8.928;2023-07-20T04:34:50;16.40;99.90
5344;DHT22;2694;48.954;8.928;2023-07-20T04:37:17;16.50;99.90
5344;DHT22;2694;48.954;8.928;2023-07-20T04:39:44;16.60;99.90
5344;DHT22;2694;48.954;8.928;2023-07-20T04:42:12;16.60;99.90
5344;DHT22;2694;48.954;8.928;2023-07-20T04:44:39;16.70;99.90
5344;DHT22;2694;48.954;8.928;2023-07-20T04:47:06;16.70;99.90
5344;DHT22;2694;48.954;8.928;2023-07-20T04:49:34;16.80;99.90
5344;DHT22;2694;48.954;8.928;2023-07-20T04:52:01;16.90;99.90
5344;DHT22;2694;48.954;8.928;2023-07-20T04:54:28;16.90;99.90
5344;DHT22;2694;48.954;8.928;2023-07-20T04:56:55;15.60;99.90
5344;DHT22;2694;48.954;8.928;2023-07-20T04:59:23;17.00;99.90
5344;DHT22;2694;48.954;8.928;2023-07-20T05:01:50;17.10;99.90
5344;DHT22;2694;48.954;8.928;2023-07-20T05:04:19;17.10;99.90
5344;DHT22;2694;48.954;8.928;2023-07-20T05:06:46;17.30;99.90
5344;DHT22;2694;48.954;8.928;2023-07-20T05:09:13;17.50;99.90
5344;DHT22;2694;48.954;8.928;2023-07-20T05:11:40;17.70;99.90
5344;DHT22;2694;48.954;8.928;2023-07-20T05:14:07;17.90;99.90
5344;DHT22;2694;48.954;8.928;2023-07-20T05:16:35;18.10;99.90
5344;DHT22;2694;48.954;8.928;2023-07-20T05:19:02;18.20;99.90
5344;DHT22;2694;48.954;8.928;2023-07-20T05:21:29;18.30;99.90
5344;DHT22;2694;48.954;8.928;2023-07-20T05:23:56;18.60;99.90
5344;DHT22;2694;48.954;8.928;2023-07-20T05:26:22;18.90;99.90
5344;DHT22;2694;48.954;8.928;2023-07-20T05:28:49;18.90;99.90
5344;DHT22;2694;48.954;8.928;2023-07-20T05:31:16;19.30;99.90
5344;DHT22;2694;48.954;8.928;2023-07-20T05:33:44;19.50;99.90
5344;DHT22;2694;48.954;8.928;2023-07-20T05:36:11;19.70;99.90
5344;DHT22;2694;48.954;8.928;2023-07-20T05:38:38;19.70;99.90
5344;DHT22;2694;48.954;8.928;2023-07-20T05:41:05;19.50;99.90
5344;DHT22;2694;48.954;8.928;2023-07-20T05:43:32;19.60;99.90
5344;DHT22;2694;48.954;8.928;2023-07-20T05:45:59;19.60;99.90
5344;DHT22;2694;48.954;8.928;2023-07-20T05:48:26;19.60;99.90
5344;DHT22;2694;48.954;8.928;2023-07-20T05:50:54;19.80;99.90
5344;DHT22;2694;48.954;8.928;2023-07-20T05:53:21;20.00;99.90
5344;DHT22;2694;48.954;8.928;2023-07-20T05:55:52;20.40;99.90
5344;DHT22;2694;48.954;8.928;2023-07-20T05:58:19;20.70;99.90
5344;DHT22;2694;48.954;8.928;2023-07-20T06:00:48;20.90;99.90
5344;DHT22;2694;48.954;8.928;2023-07-20T06:03:14;21.00;99.90
5344;DHT22;2694;48.954;8.928;2023-07-20T06:05:42;20.90;99.90
5344;DHT22;2694;48.954;8.928;2023-07-20T06:08:10;20.90;99.90
5344;DHT22;2694;48.954;8.928;2023-07-20T06:10:37;20.90;99.90
5344;DHT22;2694;48.954;8.928;2023-07-20T06:13:04;20.80;99.90
5344;DHT22;2694;48.954;8.928;2023-07-20T06:15:32;20.90;99.90
5344;DHT22;2694;48.954;8.928;2023-07-20T06:18:00;21.00;99.90
5344;DHT22;2694;48.954;8.928;2023-07-20T06:20:27;21.10;99.90
5344;DHT22;2694;48.954;8.928;2023-07-20T06:22:54;21.30;99.90
5344;DHT22;2694;48.954;8.928;2023-07-20T06:25:22;21.30;99.90
5344;DHT22;2694;48.954;8.928;2023-07-20T06:27:49;21.30;99.90
5344;DHT22;2694;48.954;8.928;2023-07-20T06:30:17;21.40;99.90
5344;DHT22;2694;48.954;8.928;2023-07-20T06:32:43;21.20;99.90
5344;DHT22;2694;48.954;8.928;2023-07-20T06:35:10;21.40;99.90
5344;DHT22;2694;48.954;8.928;2023-07-20T06:37:37;21.60;99.90
5344;DHT22;2694;48.954;8.928;2023-07-20T06:40:05;21.80;99.90
5344;DHT22;2694;48.954;8.928;2023-07-20T06:42:35;21.80;99.90
5344;DHT22;2694;48.954;8.928;2023-07-20T06:45:02;21.40;99.90
5344;DHT22;2694;48.954;8.928;2023-07-20T06:47:29;21.50;99.90
5344;DHT22;2694;48.954;8.928;2023-07-20T06:49:56;21.40;99.90
5344;DHT22;2694;48.954;8.928;2023-07-20T06:52:23;21.80;99.90
5344;DHT22;2694;48.954;8.928;2023-07-20T06:54:50;21.70;99.90
5344;DHT22;2694;48.954;8.928;2023-07-20T06:57:16;21.40;99.90
5344;DHT22;2694;48.954;8.928;2023-07-20T06:59:45;21.40;99.90
5344;DHT22;2694;48.954;8.928;2023-07-20T07:02:12;21.50;99.90
5344;DHT22;2694;48.954;8.928;2023-07-20T07:04:39;21.70;99.90
5344;DHT22;2694;48.954;8.928;2023-07-20T07:07:06;21.80;99.90
5344;DHT22;2694;48.954;8.928;2023-07-20T07:09:33;21.80;99.90
5344;DHT22;2694;48.954;8.928;2023-07-20T07:11:59;22.00;99.90
5344;DHT22;2694;48.954;8.928;2023-07-20T07:14:26;22.10;99.90
5344;DHT22;2694;48.954;8.928;2023-07-20T07:16:54;22.40;99.90
5344;DHT22;2694;48.954;8.928;2023-07-20T07:19:21;22.50;99.60
5344;DHT22;2694;48.954;8.928;2023-07-20T07:21:48;22.50;98.90
5344;DHT22;2694;48.954;8.928;2023-07-20T07:24:15;22.70;99.10
5344;DHT22;2694;48.954;8.928;2023-07-20T07:26:41;22.50;99.10
5344;DHT22;2694;48.954;8.928;2023-07-20T07:29:08;22.20;99.30
5344;DHT22;2694;48.954;8.928;2023-07-20T07:31:35;22.10;99.60
5344;DHT22;2694;48.954;8.928;2023-07-20T07:34:05;22.30;99.30
5344;DHT22;2694;48.954;8.928;2023-07-20T07:36:33;22.60;99.40
5344;DHT22;2694;48.954;8.928;2023-07-20T07:38:59;23.00;98.90
5344;DHT22;2694;48.954;8.928;2023-07-20T07:41:26;23.30;98.20
5344;DHT22;2694;48.954;8.928;2023-07-20T07:43:53;22.90;98.30
5344;DHT22;2694;48.954;8.928;2023-07-20T07:46:20;22.80;98.70
5344;DHT22;2694;48.954;8.928;2023-07-20T07:48:46;22.70;98.30
5344;DHT22;2694;48.954;8.928;2023-07-20T07:51:15;22.30;98.70
5344;DHT22;2694;48.954;8.928;2023-07-20T07:53:41;22.00;99.20
5344;DHT22;2694;48.954;8.928;2023-07-20T07:56:09;21.70;99.60
5344;DHT22;2694;48.954;8.928;2023-07-20T07:58:36;21.40;99.80
5344;DHT22;2694;48.954;8.928;2023-07-20T08:01:02;21.30;99.90
5344;DHT22;2694;48.954;8.928;2023-07-20T08:03:29;21.50;99.90
5344;DHT22;2694;48.954;8.928;2023-07-20T08:05:56;21.90;99.90
5344;DHT22;2694;48.954;8.928;2023-07-20T08:08:25;22.30;99.10
5344;DHT22;2694;48.954;8.928;2023-07-20T08:10:53;22.70;98.60
5344;DHT22;2694;48.954;8.928;2023-07-20T08:13:21;23.00;97.90
5344;DHT22;2694;48.954;8.928;2023-07-20T08:15:50;23.00;98.20
5344;DHT22;2694;48.954;8.928;2023-07-20T08:18:17;22.80;98.50
5344;DHT22;2694;48.954;8.928;2023-07-20T08:20:44;22.80;98.00
5344;DHT22;2694;48.954;8.928;2023-07-20T08:23:12;23.10;97.90
5344;DHT22;2694;48.954;8.928;2023-07-20T08:25:40;23.20;97.40
5344;DHT22;2694;48.954;8.928;2023-07-20T08:28:09;23.40;97.40
5344;DHT22;2694;48.954;8.928;2023-07-20T08:30:40;23.50;97.30
5344;DHT22;2694;48.954;8.928;2023-07-20T08:33:07;23.80;97.10
5344;DHT22;2694;48.954;8.928;2023-07-20T08:35:34;24.00;97.30
5344;DHT22;2694;48.954;8.928;2023-07-20T08:38:01;24.00;95.20
5344;DHT22;2694;48.954;8.928;2023-07-20T08:40:30;24.00;95.30
5344;DHT22;2694;48.954;8.928;2023-07-20T08:42:58;24.20;95.60
5344;DHT22;2694;48.954;8.928;2023-07-20T08:45:27;24.40;94.90
5344;DHT22;2694;48.954;8.928;2023-07-20T08:47:56;24.40;94.80
5344;DHT22;2694;48.954;8.928;2023-07-20T08:50:25;24.40;94.10
5344;DHT22;2694;48.954;8.928;2023-07-20T08:52:57;24.10;93.80
5344;DHT22;2694;48.954;8.928;2023-07-20T08:55:26;23.80;94.10
5344;DHT22;2694;48.954;8.928;2023-07-20T08:57:54;23.60;94.60
5344;DHT22;2694;48.954;8.928;2023-07-20T09:00:23;23.50;95.20
5344;DHT22;2694;48.954;8.928;2023-07-20T09:02:52;23.50;94.10
5344;DHT22;2694;48.954;8.928;2023-07-20T09:05:19;23.60;93.50
5344;DHT22;2694;48.954;8.928;2023-07-20T09:07:46;23.80;93.70
5344;DHT22;2694;48.954;8.928;2023-07-20T09:10:13;23.70;93.50
5344;DHT22;2694;48.954;8.928;2023-07-20T09:12:41;23.90;94.00
5344;DHT22;2694;48.954;8.928;2023-07-20T09:15:09;24.10;93.80
5344;DHT22;2694;48.954;8.928;2023-07-20T09:17:38;24.00;94.30
5344;DHT22;2694;48.954;8.928;2023-07-20T09:20:06;23.80;93.70
5344;DHT22;2694;48.954;8.928;2023-07-20T09:22:37;24.00;93.30
5344;DHT22;2694;48.954;8.928;2023-07-20T09:25:06;24.20;93.20
5344;DHT22;2694;48.954;8.928;2023-07-20T09:27:37;24.30;93.40
5344;DHT22;2694;48.954;8.928;2023-07-20T09:30:05;24.40;91.70
5344;DHT22;2694;48.954;8.928;2023-07-20T09:32:40;24.40;92.70
5344;DHT22;2694;48.954;8.928;2023-07-20T09:35:12;24.50;91.60
5344;DHT22;2694;48.954;8.928;2023-07-20T09:37:39;24.70;92.60
5344;DHT22;2694;48.954;8.928;2023-07-20T09:40:09;24.70;91.00
5344;DHT22;2694;48.954;8.928;2023-07-20T09:42:37;24.90;90.60
5344;DHT22;2694;48.954;8.928;2023-07-20T09:45:07;25.00;91.30
5344;DHT22;2694;48.954;8.928;2023-07-20T09:47:36;25.30;91.80
5344;DHT22;2694;48.954;8.928;2023-07-20T09:50:05;25.10;88.40
5344;DHT22;2694;48.954;8.928;2023-07-20T09:52:37;25.20;88.90
5344;DHT22;2694;48.954;8.928;2023-07-20T09:55:06;25.30;90.30
5344;DHT22;2694;48.954;8.928;2023-07-20T09:57:33;25.20;89.30
5344;DHT22;2694;48.954;8.928;2023-07-20T10:00:00;24.90;89.10
5344;DHT22;2694;48.954;8.928;2023-07-20T10:02:32;25.00;88.60
5344;DHT22;2694;48.954;8.928;2023-07-20T10:05:03;25.00;89.50
5344;DHT22;2694;48.954;8.928;2023-07-20T10:07:30;25.40;87.90
5344;DHT22;2694;48.954;8.928;2023-07-20T10:10:00;25.50;90.40
5344;DHT22;2694;48.954;8.928;2023-07-20T10:12:29;25.50;90.70
5344;DHT22;2694;48.954;8.928;2023-07-20T10:15:03;25.40;89.70
5344;DHT22;2694;48.954;8.928;2023-07-20T10:17:31;25.10;89.80
5344;DHT22;2694;48.954;8.928;2023-07-20T10:20:00;24.60;87.10
5344;DHT22;2694;48.954;8.928;2023-07-20T10:22:35;24.60;86.10
5344;DHT22;2694;48.954;8.928;2023-07-20T10:25:02;24.80;87.70
5344;DHT22;2694;48.954;8.928;2023-07-20T10:27:31;25.30;86.70
5344;DHT22;2694;48.954;8.928;2023-07-20T10:29:58;25.80;86.60
5344;DHT22;2694;48.954;8.928;2023-07-20T10:32:27;26.20;85.60
5344;DHT22;2694;48.954;8.928;2023-07-20T10:34:56;26.10;82.00
5344;DHT22;2694;48.954;8.928;2023-07-20T10:37:47;25.80;82.10
5344;DHT22;2694;48.954;8.928;2023-07-20T10:40:37;25.60;82.60
5344;DHT22;2694;48.954;8.928;2023-07-20T10:43:05;25.80;79.80
5344;DHT22;2694;48.954;8.928;2023-07-20T10:45:39;25.70;79.40
5344;DHT22;2694;48.954;8.928;2023-07-20T10:48:11;25.70;80.60
5344;DHT22;2694;48.954;8.928;2023-07-20T10:50:39;26.20;79.50
5344;DHT22;2694;48.954;8.928;2023-07-20T10:53:18;26.00;78.30
5344;DHT22;2694;48.954;8.928;2023-07-20T10:55:45;26.10;80.60
5344;DHT22;2694;48.954;8.928;2023-07-20T10:58:16;26.70;77.70
5344;DHT22;2694;48.954;8.928;2023-07-20T11:00:57;26.40;78.60
5344;DHT22;2694;48.954;8.928;2023-07-20T11:03:29;26.40;79.30
5344;DHT22;2694;48.954;8.928;2023-07-20T11:05:57;26.50;80.50
5344;DHT22;2694;48.954;8.928;2023-07-20T11:08:41;26.60;81.10
5344;DHT22;2694;48.954;8.928;2023-07-20T11:11:26;26.80;79.80
5344;DHT22;2694;48.954;8.928;2023-07-20T11:13:57;27.00;75.80
5344;DHT22;2694;48.954;8.928;2023-07-20T11:16:41;27.00;74.30
5344;DHT22;2694;48.954;8.928;2023-07-20T11:19:15;26.70;73.80
5344;DHT22;2694;48.954;8.928;2023-07-20T11:21:44;26.80;72.90
5344;DHT22;2694;48.954;8.928;2023-07-20T11:24:12;26.90;73.60
5344;DHT22;2694;48.954;8.928;2023-07-20T11:26:41;27.20;75.00
5344;DHT22;2694;48.954;8.928;2023-07-20T11:29:07;27.30;73.30
5344;DHT22;2694;48.954;8.928;2023-07-20T11:31:36;26.80;73.20
5344;DHT22;2694;48.954;8.928;2023-07-20T11:34:03;26.30;71.90
5344;DHT22;2694;48.954;8.928;2023-07-20T11:36:30;26.10;71.10
5344;DHT22;2694;48.954;8.928;2023-07-20T11:38:57;26.00;72.80
5344;DHT22;2694;48.954;8.928;2023-07-20T11:41:26;26.00;71.70
5344;DHT22;2694;48.954;8.928;2023-07-20T11:43:54;26.20;72.00
5344;DHT22;2694;48.954;8.928;2023-07-20T11:46:20;26.20;73.00
5344;DHT22;2694;48.954;8.928;2023-07-20T11:48:47;26.20;73.80
5344;DHT22;2694;48.954;8.928;2023-07-20T11:51:15;26.20;74.90
5344;DHT22;2694;48.954;8.928;2023-07-20T11:53:43;26.20;74.00
5344;DHT22;2694;48.954;8.928;2023-07-20T11:56:11;26.40;71.90
5344;DHT22;2694;48.954;8.928;2023-07-20T11:58:43;26.50;69.90
5344;DHT22;2694;48.954;8.928;2023-07-20T12:01:11;26.70;68.50
5344;DHT22;2694;48.954;8.928;2023-07-20T12:03:38;26.80;69.10
5344;DHT22;2694;48.954;8.928;2023-07-20T12:06:08;26.80;68.10
5344;DHT22;2694;48.954;8.928;2023-07-20T12:08:38;26.70;67.60
5344;DHT22;2694;48.954;8.928;2023-07-20T12:11:05;26.90;69.10
5344;DHT22;2694;48.954;8.928;2023-07-20T12:13:39;27.00;68.50
5344;DHT22;2694;48.954;8.928;2023-07-20T12:16:11;27.20;70.30
5344;DHT22;2694;48.954;8.928;2023-07-20T12:18:38;27.10;70.20
5344;DHT22;2694;48.954;8.928;2023-07-20T12:21:06;26.80;66.50
5344;DHT22;2694;48.954;8.928;2023-07-20T12:23:38;26.70;65.60
5344;DHT22;2694;48.954;8.928;2023-07-20T12:26:09;26.60;67.00
5344;DHT22;2694;48.954;8.928;2023-07-20T12:28:40;26.70;65.90
5344;DHT22;2694;48.954;8.928;2023-07-20T12:31:08;26.60;64.20
5344;DHT22;2694;48.954;8.928;2023-07-20T12:33:36;26.70;63.80
5344;DHT22;2694;48.954;8.928;2023-07-20T12:36:04;26.80;58.80
5344;DHT22;2694;48.954;8.928;2023-07-20T12:38:31;26.90;62.40
5344;DHT22;2694;48.954;8.928;2023-07-20T12:40:59;27.10;64.00
5344;DHT22;2694;48.954;8.928;2023-07-20T12:43:27;27.30;61.90
5344;DHT22;2694;48.954;8.928;2023-07-20T12:45:55;27.00;61.60
5344;DHT22;2694;48.954;8.928;2023-07-20T12:48:22;26.60;61.30
5344;DHT22;2694;48.954;8.928;2023-07-20T12:50:50;26.50;60.00
5344;DHT22;2694;48.954;8.928;2023-07-20T12:53:17;26.60;61.20
5344;DHT22;2694;48.954;8.928;2023-07-20T12:55:44;26.50;63.40
5344;DHT22;2694;48.954;8.928;2023-07-20T12:58:11;26.60;64.00
5344;DHT22;2694;48.954;8.928;2023-07-20T13:00:38;26.60;63.60
5344;DHT22;2694;48.954;8.928;2023-07-20T13:03:05;26.70;63.70
5344;DHT22;2694;48.954;8.928;2023-07-20T13:05:34;26.70;63.00
5344;DHT22;2694;48.954;8.928;2023-07-20T13:08:02;26.70;65.30
5344;DHT22;2694;48.954;8.928;2023-07-20T13:10:30;26.60;64.10
5344;DHT22;2694;48.954;8.928;2023-07-20T13:12:57;26.20;64.60
5344;DHT22;2694;48.954;8.928;2023-07-20T13:15:29;26.10;66.40
5344;DHT22;2694;48.954;8.928;2023-07-20T13:17:57;26.00;66.00
5344;DHT22;2694;48.954;8.928;2023-07-20T13:20:25;26.00;66.30
5344;DHT22;2694;48.954;8.928;2023-07-20T13:22:54;26.10;65.30
5344;DHT22;2694;48.954;8.928;2023-07-20T13:25:22;26.10;64.70
5344;DHT22;2694;48.954;8.928;2023-07-20T13:27:49;25.90;65.90
5344;DHT22;2694;48.954;8.928;2023-07-20T13:30:15;25.90;65.00
5344;DHT22;2694;48.954;8.928;2023-07-20T13:32:43;26.20;65.60
5344;DHT22;2694;48.954;8.928;2023-07-20T13:35:10;26.10;64.30
5344;DHT22;2694;48.954;8.928;2023-07-20T13:37:38;26.20;65.40
5344;DHT22;2694;48.954;8.928;2023-07-20T13:40:06;26.40;62.70
5344;DHT22;2694;48.954;8.928;2023-07-20T13:42:40;26.30;63.00
5344;DHT22;2694;48.954;8.928;2023-07-20T13:45:07;26.50;62.80
5344;DHT22;2694;48.954;8.928;2023-07-20T13:47:34;26.70;63.80
5344;DHT22;2694;48.954;8.928;2023-07-20T13:50:01;26.90;65.00
5344;DHT22;2694;48.954;8.928;2023-07-20T13:52:28;27.20;62.20
5344;DHT22;2694;48.954;8.928;2023-07-20T13:54:54;27.10;61.30
5344;DHT22;2694;48.954;8.928;2023-07-20T13:57:21;27.10;61.10
5344;DHT22;2694;48.954;8.928;2023-07-20T13:59:49;27.10;59.10
5344;DHT22;2694;48.954;8.928;2023-07-20T14:02:16;26.70;58.60
5344;DHT22;2694;48.954;8.928;2023-07-20T14:04:43;26.60;61.20
5344;DHT22;2694;48.954;8.928;2023-07-20T14:07:09;26.70;60.30
5344;DHT22;2694;48.954;8.928;2023-07-20T14:09:36;26.70;59.50
5344;DHT22;2694;48.954;8.928;2023-07-20T14:12:04;26.60;58.40
5344;DHT22;2694;48.954;8.928;2023-07-20T14:14:30;26.60;60.10
5344;DHT22;2694;48.954;8.928;2023-07-20T14:16:59;26.60;61.20
5344;DHT22;2694;48.954;8.928;2023-07-20T14:19:25;26.60;61.80
5344;DHT22;2694;48.954;8.928;2023-07-20T14:21:52;26.70;60.70
5344;DHT22;2694;48.954;8.928;2023-07-20T14:24:20;26.80;61.00
5344;DHT22;2694;48.954;8.928;2023-07-20T14:26:47;26.80;59.80
5344;DHT22;2694;48.954;8.928;2023-07-20T14:29:14;26.90;58.90
5344;DHT22;2694;48.954;8.928;2023-07-20T14:31:41;26.80;60.00
5344;DHT22;2694;48.954;8.928;2023-07-20T14:34:09;26.80;59.70
5344;DHT22;2694;48.954;8.928;2023-07-20T14:36:36;26.80;58.50
5344;DHT22;2694;48.954;8.928;2023-07-20T14:39:02;26.70;58.90
5344;DHT22;2694;48.954;8.928;2023-07-20T14:41:33;26.80;58.50
5344;DHT22;2694;48.954;8.928;2023-07-20T14:43:59;26.70;59.50
5344;DHT22;2694;48.954;8.928;2023-07-20T14:46:26;26.60;58.50
5344;DHT22;2694;48.954;8.928;2023-07-20T14:48:53;26.50;58.80
5344;DHT22;2694;48.954;8.928;2023-07-20T14:51:21;26.50;59.30
5344;DHT22;2694;48.954;8.928;2023-07-20T14:53:48;26.50;59.10
5344;DHT22;2694;48.954;8.928;2023-07-20T14:56:14;26.60;58.00
5344;DHT22;2694;48.954;8.928;2023-07-20T14:58:41;26.50;58.90
5344;DHT22;2694;48.954;8.928;2023-07-20T15:01:08;26.50;57.00
5344;DHT22;2694;48.954;8.928;2023-07-20T15:03:35;26.50;57.70
5344;DHT22;2694;48.954;8.928;2023-07-20T15:06:01;26.40;58.90
5344;DHT22;2694;48.954;8.928;2023-07-20T15:08:30;26.30;57.80
5344;DHT22;2694;48.954;8.928;2023-07-20T15:10:57;26.20;57.10
5344;DHT22;2694;48.954;8.928;2023-07-20T15:13:23;26.20;59.60
5344;DHT22;2694;48.954;8.928;2023-07-20T15:15:51;26.20;57.50
5344;DHT22;2694;48.954;8.928;2023-07-20T15:18:18;26.40;57.70
5344;DHT22;2694;48.954;8.928;2023-07-20T15:20:44;26.60;58.50
5344;DHT22;2694;48.954;8.928;2023-07-20T15:23:13;26.60;58.20
5344;DHT22;2694;48.954;8.928;2023-07-20T15:25:41;26.80;57.50
5344;DHT22;2694;48.954;8.928;2023-07-20T15:28:07;26.80;57.90
5344;DHT22;2694;48.954;8.928;2023-07-20T15:30:34;26.70;55.70
5344;DHT22;2694;48.954;8.928;2023-07-20T15:33:01;26.50;55.60
5344;DHT22;2694;48.954;8.928;2023-07-20T15:35:28;26.50;56.80
5344;DHT22;2694;48.954;8.928;2023-07-20T15:37:55;26.60;56.70
5344;DHT22;2694;48.954;8.928;2023-07-20T15:40:21;26.60;56.40
5344;DHT22;2694;48.954;8.928;2023-07-20T15:42:49;26.60;56.30
5344;DHT22;2694;48.954;8.928;2023-07-20T15:45:16;26.60;55.60
5344;DHT22;2694;48.954;8.928;2023-07-20T15:47:43;26.50;56.00
5344;DHT22;2694;48.954;8.928;2023-07-20T15:50:11;26.50;55.00
5344;DHT22;2694;48.954;8.928;2023-07-20T15:52:38;26.30;55.20
5344;DHT22;2694;48.954;8.928;2023-07-20T15:55:05;26.30;55.20
5344;DHT22;2694;48.954;8.928;2023-07-20T15:57:32;26.20;55.50
5344;DHT22;2694;48.954;8.928;2023-07-20T16:00:02;26.10;55.70
5344;DHT22;2694;48.954;8.928;2023-07-20T16:02:30;26.00;55.20
5344;DHT22;2694;48.954;8.928;2023-07-20T16:04:56;25.90;56.00
5344;DHT22;2694;48.954;8.928;2023-07-20T16:07:23;25.90;56.30
5344;DHT22;2694;48.954;8.928;2023-07-20T16:09:50;26.00;57.40
5344;DHT22;2694;48.954;8.928;2023-07-20T16:12:18;26.10;57.60